Beaver County Airport
KBVI : rendu visible

Aérodrome :











RETROUVEZ-NOUS SUR...

 
LOGIN :

S'inscrire | Disclaimer

   EN    FR    IT 

 









Légende :    VFR   VFR Marginal   IFR   IFR Intensif   IFR Très Intensif
Visi : 
Plafond : 
>= 8 km
>= 3000ft
5 à 8 km
1000 à 3000 ft
1500m à 5 km
500 à 1000 ft
800 à 1500m
200 à 500 ft
< 800m
< 200 ft
Symboles :   Orages  Brouillard  Fortes neiges  Fortes précipitations  Vent > 20 kt






- Altitude de l'aérodrome : 1253 ft


KBVI - Beaver County

DERNIER METAR :
  • 222256Z AUTO 34004KT 10SM OVC028 02/M03 A3010 RMK AO2 T00191035

METARs EXPIRÉS :
  • 222236Z AUTO 32007KT 10SM OVC028 02/M03 A3009 RMK AO2 T00201034
  • 222216Z AUTO 33005KT 10SM OVC028 02/M03 A3009 RMK AO2 T00201035
  • 222156Z AUTO 33005KT 10SM OVC028 02/M04 A3008 RMK AO2 T00221036
  • 222135Z AUTO 32008G14KT 300V360 10SM OVC028 03/M04 A3007 RMK AO2 T00251036
  • 222115Z AUTO 31010G14KT 10SM OVC028 03/M03 A3006 RMK AO2 T00271033
  • 222055Z AUTO 34007KT 10SM OVC030 03/M03 A3006 RMK AO2 T00301031
  • 222035Z AUTO 31009G15KT 280V340 10SM OVC030 03/M03 A3005 RMK AO2 T00311033
  • 222015Z AUTO 31007G14KT 10SM OVC030 04/M03 A3003 RMK AO2 T00351030

TAF KBVI
Valide du 22 à 21h jusqu'au 23 à 18h UTC


222103Z 2221/2318 33011KT P6SM OVC025
FM230000 VRB04KT P6SM SKC
FM231500 09005KT P6SM BKN100



MET'MAP, la Météo Aéronautique d'un coup d'oeil ! - Copyright ORBIFLY Décembre 2007 - Disclaimer

ORBIFLY MET'MAP TEAM :

Programmation & Développement : Alexandra Zaïnal
Conception & Développement : Baudouin d'Aumeries
Co-Programmation & Développement : Marc-Olivier Méhu
Soutien technique & logistique : Manuel Goepfert

Contact : metmap@orbifly.com




SOURCES & CREDITS :

   NOAA       Earth
Advisory